createdAt,value
2022-12-24T00:56:24.704Z,4.47
2022-12-24T00:58:54.016Z,4.67
2022-12-24T01:01:27.089Z,4.43
2022-12-24T01:04:18.032Z,4.52
2022-12-24T01:06:46.457Z,4.53
2022-12-24T01:09:15.441Z,4.47
2022-12-24T01:11:42.727Z,4.53
2022-12-24T01:14:09.819Z,4.56
2022-12-24T01:16:37.215Z,4.58
2022-12-24T01:19:09.133Z,4.63
2022-12-24T01:21:51.993Z,4.51
2022-12-24T01:30:26.556Z,4.52
2022-12-24T01:33:33.204Z,4.49
2022-12-24T01:36:18.337Z,4.78
2022-12-24T01:42:19.624Z,4.69
2022-12-24T01:44:49.815Z,4.51
2022-12-24T01:47:25.875Z,4.81
2022-12-24T01:50:03.721Z,4.78
2022-12-24T01:52:36.791Z,4.63
2022-12-24T01:55:12.988Z,4.83
2022-12-24T01:57:50.733Z,4.83
2022-12-24T02:00:18.180Z,4.55
2022-12-24T02:02:49.780Z,4.84
2022-12-24T02:05:28.970Z,4.56
2022-12-24T02:07:57.408Z,4.58
2022-12-24T02:10:30.192Z,4.59
2022-12-24T02:12:57.985Z,4.84
2022-12-24T02:15:39.644Z,4.85
2022-12-24T02:18:21.030Z,4.66
2022-12-24T02:21:10.152Z,4.85
2022-12-24T02:23:57.266Z,4.84
2022-12-24T02:27:15.117Z,4.81
2022-12-24T02:29:57.836Z,4.81
2022-12-24T02:32:29.052Z,4.83
2022-12-24T02:35:25.164Z,4.63
2022-12-24T02:38:31.248Z,4.82
2022-12-24T02:41:20.838Z,4.83
2022-12-24T02:43:55.186Z,4.57
2022-12-24T02:46:31.796Z,4.61
2022-12-24T02:49:08.143Z,4.56
2022-12-24T02:51:49.304Z,4.57
2022-12-24T03:01:21.534Z,4.55
2022-12-24T03:04:03.579Z,4.84
2022-12-24T03:07:24.031Z,4.63
2022-12-24T03:10:04.765Z,4.67
2022-12-24T03:15:32.019Z,4.61
2022-12-24T03:21:07.446Z,4.67
2022-12-24T03:23:37.520Z,4.85
2022-12-24T03:26:09.298Z,4.59
2022-12-24T03:28:42.796Z,4.87
2022-12-24T03:31:17.239Z,4.68
2022-12-24T03:33:46.018Z,4.69
2022-12-24T03:36:13.792Z,4.55
2022-12-24T03:38:54.713Z,4.87
2022-12-24T03:41:24.893Z,4.78
2022-12-24T03:43:53.847Z,4.66
2022-12-24T03:46:36.160Z,4.62
2022-12-24T03:49:12.480Z,4.65
2022-12-24T03:51:42.214Z,4.57
2022-12-24T03:54:10.283Z,4.58
2022-12-24T03:56:43.949Z,4.64
2022-12-24T04:06:33.846Z,4.74
2022-12-24T04:10:06.416Z,4.45
2022-12-24T04:25:05.525Z,4.71
2022-12-24T04:27:40.508Z,4.53
2022-12-24T04:30:44.967Z,4.54
2022-12-24T04:36:29.753Z,4.51
2022-12-24T04:39:08.223Z,4.45
2022-12-24T04:41:43.119Z,4.56
2022-12-24T04:44:22.197Z,4.55
2022-12-24T04:47:01.947Z,4.55
2022-12-24T04:49:33.372Z,4.55
2022-12-24T04:52:13.535Z,4.82
2022-12-24T04:54:44.025Z,4.64
2022-12-24T04:57:19.987Z,4.53
2022-12-24T05:00:01.581Z,4.50
2022-12-24T05:02:37.563Z,4.58
2022-12-24T05:05:22.609Z,4.63
2022-12-24T05:08:05.487Z,4.82
2022-12-24T05:10:55.664Z,4.80
2022-12-24T05:13:23.313Z,4.64
2022-12-24T05:15:50.997Z,4.52
2022-12-24T05:18:19.389Z,4.61
2022-12-24T05:20:49.561Z,4.66
2022-12-24T05:23:37.444Z,4.84
2022-12-24T05:26:23.426Z,4.51
2022-12-24T05:29:01.058Z,4.82
2022-12-24T05:31:34.542Z,4.62
2022-12-24T05:34:06.887Z,4.58
2022-12-24T05:36:39.588Z,4.64
2022-12-24T05:39:19.389Z,4.55
2022-12-24T05:41:51.270Z,4.60
2022-12-24T05:44:22.583Z,4.61
2022-12-24T05:46:51.797Z,4.62
2022-12-24T05:49:21.201Z,4.62
2022-12-24T05:52:09.547Z,4.55
2022-12-24T05:54:38.737Z,4.53
2022-12-24T05:57:07.503Z,4.63
2022-12-24T05:59:34.677Z,4.53
2022-12-24T06:02:03.001Z,4.74
2022-12-24T06:04:30.151Z,4.66
2022-12-24T06:06:57.226Z,4.71
2022-12-24T06:09:24.178Z,4.59
2022-12-24T06:11:51.332Z,4.53
2022-12-24T06:14:18.403Z,4.74
2022-12-24T06:16:45.482Z,4.54
2022-12-24T06:19:12.588Z,4.61
2022-12-24T06:21:39.681Z,4.56
2022-12-24T06:24:06.967Z,4.67
2022-12-24T06:26:34.009Z,4.74
2022-12-24T06:29:01.060Z,4.70
2022-12-24T06:31:28.174Z,4.51
2022-12-24T06:33:55.487Z,4.58
2022-12-24T06:36:24.049Z,4.64
2022-12-24T06:38:51.398Z,4.64
2022-12-24T06:41:18.585Z,4.71
2022-12-24T06:43:46.417Z,4.56
2022-12-24T06:46:13.792Z,4.64
2022-12-24T06:48:40.998Z,4.73
2022-12-24T06:51:08.074Z,4.71
2022-12-24T06:53:35.044Z,4.66
2022-12-24T06:56:06.289Z,4.68
2022-12-24T06:58:33.825Z,4.64
2022-12-24T07:01:07.983Z,4.68
2022-12-24T07:03:35.281Z,4.55
2022-12-24T07:06:02.483Z,4.64
2022-12-24T07:08:29.806Z,4.63
2022-12-24T07:10:56.761Z,4.67
2022-12-24T07:13:23.791Z,4.66
2022-12-24T07:16:00.808Z,4.63
2022-12-24T07:18:28.328Z,4.68
2022-12-24T07:24:49.654Z,4.49
2022-12-24T07:28:39.975Z,4.65
2022-12-24T07:31:15.163Z,4.38
2022-12-24T07:39:49.204Z,4.60
2022-12-24T07:42:16.376Z,4.53
2022-12-24T07:44:44.276Z,4.52
2022-12-24T07:47:20.808Z,4.52
2022-12-24T07:49:47.911Z,4.67
2022-12-24T07:52:15.070Z,4.60
2022-12-24T07:54:47.283Z,4.83
2022-12-24T07:57:14.414Z,4.70
2022-12-24T07:59:41.394Z,4.76
2022-12-24T08:02:17.633Z,4.65
2022-12-24T08:04:45.418Z,4.71
2022-12-24T08:07:14.958Z,4.91
2022-12-24T08:09:42.131Z,4.75
2022-12-24T08:12:09.401Z,4.84
2022-12-24T08:15:05.087Z,4.90
2022-12-24T08:17:37.069Z,4.80
2022-12-24T08:20:07.834Z,4.83
2022-12-24T08:22:34.865Z,4.85
2022-12-24T08:25:01.874Z,4.82
2022-12-24T08:27:28.972Z,4.92
2022-12-24T08:29:55.970Z,4.95
2022-12-24T08:32:23.035Z,5.20
2022-12-24T08:34:51.570Z,5.04
2022-12-24T08:37:18.569Z,5.03
2022-12-24T08:39:45.966Z,5.22
2022-12-24T08:42:13.062Z,5.12
2022-12-24T08:44:40.339Z,5.33
2022-12-24T08:47:07.577Z,5.18
2022-12-24T08:49:34.522Z,5.19
2022-12-24T08:52:09.022Z,5.48
2022-12-24T08:54:36.059Z,5.24
2022-12-24T08:57:03.366Z,5.39
2022-12-24T08:59:30.600Z,5.36
2022-12-24T09:02:00.094Z,5.49
2022-12-24T09:04:28.443Z,5.45
2022-12-24T09:09:46.939Z,5.52
2022-12-24T09:12:14.110Z,5.39
2022-12-24T09:14:41.249Z,5.64
2022-12-24T09:17:08.232Z,5.45
2022-12-24T09:19:35.287Z,5.56
2022-12-24T09:22:02.236Z,5.61
2022-12-24T09:24:29.217Z,5.67
2022-12-24T09:26:58.094Z,5.67
2022-12-24T09:29:25.575Z,5.53
2022-12-24T09:31:52.807Z,5.57
2022-12-24T09:34:21.739Z,5.50
2022-12-24T09:36:54.347Z,5.63
2022-12-24T09:39:21.331Z,5.50
2022-12-24T09:42:29.316Z,5.76
2022-12-24T09:45:01.365Z,5.76
2022-12-24T09:47:39.982Z,5.68
2022-12-24T09:50:25.941Z,5.73
2022-12-24T09:52:53.290Z,5.78
2022-12-24T09:55:44.971Z,5.76
2022-12-24T09:58:21.928Z,5.77
2022-12-24T10:00:50.301Z,5.87
2022-12-24T10:03:17.994Z,5.88
2022-12-24T10:06:09.023Z,6.04
2022-12-24T10:08:54.222Z,5.82
2022-12-24T10:11:49.769Z,6.12
2022-12-24T10:14:56.626Z,6.20
2022-12-24T10:17:35.926Z,6.06
2022-12-24T10:20:21.712Z,6.24
2022-12-24T10:23:10.543Z,6.18
2022-12-24T10:25:51.504Z,6.44
2022-12-24T10:28:29.943Z,6.30
2022-12-24T10:31:00.305Z,6.38
2022-12-24T10:33:44.226Z,6.55
2022-12-24T10:36:18.834Z,6.63
2022-12-24T10:38:50.939Z,6.85
2022-12-24T10:41:20.333Z,6.70
2022-12-24T10:43:47.346Z,6.76
2022-12-24T10:46:35.912Z,7.00
2022-12-24T10:49:04.948Z,7.05
2022-12-24T10:51:43.169Z,7.27
2022-12-24T10:54:34.206Z,7.54
2022-12-24T10:57:24.248Z,7.35
2022-12-24T10:59:55.350Z,7.36
2022-12-24T11:02:38.401Z,7.66
2022-12-24T11:05:28.774Z,7.51
2022-12-24T11:08:20.498Z,7.71
2022-12-24T11:11:34.199Z,7.58
2022-12-24T11:14:01.585Z,7.67
2022-12-24T11:16:30.523Z,7.74
2022-12-24T11:18:58.886Z,7.78
2022-12-24T11:21:32.228Z,7.87
2022-12-24T11:24:03.090Z,7.96
2022-12-24T11:26:30.936Z,7.91
2022-12-24T11:29:30.783Z,7.86
2022-12-24T11:32:21.654Z,8.01
2022-12-24T11:34:49.096Z,7.82
2022-12-24T11:37:24.104Z,7.97
2022-12-24T11:40:00.407Z,7.89
2022-12-24T11:42:38.164Z,8.02
2022-12-24T11:45:26.443Z,7.98
2022-12-24T11:48:59.259Z,7.97
2022-12-24T11:51:29.744Z,8.11
2022-12-24T11:54:11.467Z,8.20
2022-12-24T11:56:52.602Z,8.40
2022-12-24T11:59:27.370Z,8.34
2022-12-24T12:02:53.603Z,8.48
2022-12-24T12:12:16.027Z,8.57
2022-12-24T12:15:01.193Z,8.74
2022-12-24T12:17:38.207Z,8.74
2022-12-24T12:20:43.763Z,9.02
2022-12-24T12:23:34.790Z,9.09
2022-12-24T12:26:09.174Z,9.03
2022-12-24T12:29:01.872Z,9.30
2022-12-24T12:31:49.314Z,9.35
2022-12-24T12:34:21.265Z,9.22
2022-12-24T12:37:33.281Z,9.35
2022-12-24T12:40:00.641Z,9.36
2022-12-24T12:42:59.150Z,9.55
2022-12-24T12:45:59.072Z,9.78
2022-12-24T12:48:29.190Z,9.91
2022-12-24T12:51:02.942Z,9.90
2022-12-24T12:54:04.938Z,10.06
2022-12-24T12:56:35.653Z,9.98
2022-12-24T12:59:10.750Z,10.19
2022-12-24T13:02:09.384Z,10.25
2022-12-24T13:04:36.506Z,10.30
2022-12-24T13:07:26.245Z,10.29
2022-12-24T13:10:02.326Z,10.14
2022-12-24T13:12:51.161Z,10.29
2022-12-24T13:15:29.910Z,10.20
2022-12-24T13:18:01.672Z,10.38
2022-12-24T13:20:32.585Z,10.36
2022-12-24T13:23:02.187Z,10.24
2022-12-24T13:25:49.300Z,10.20
2022-12-24T13:28:24.533Z,10.34
2022-12-24T13:31:12.667Z,10.11
2022-12-24T13:33:39.654Z,10.27
2022-12-24T13:36:11.984Z,10.21
2022-12-24T13:38:56.900Z,10.14
2022-12-24T13:41:41.406Z,10.25
2022-12-24T13:44:13.316Z,10.23
2022-12-24T13:46:49.620Z,10.24
2022-12-24T13:49:33.501Z,10.20
2022-12-24T13:52:09.510Z,10.17
2022-12-24T13:54:42.801Z,10.15
2022-12-24T13:57:41.696Z,10.11
2022-12-24T14:00:20.682Z,10.06
2022-12-24T14:03:07.801Z,9.87
2022-12-24T14:05:38.101Z,10.04
2022-12-24T14:08:13.556Z,9.97
2022-12-24T14:10:46.299Z,9.93
2022-12-24T14:13:38.119Z,10.04
2022-12-24T14:16:21.806Z,9.88
2022-12-24T14:18:58.780Z,9.88
2022-12-24T14:21:35.052Z,9.84
2022-12-24T14:24:03.305Z,9.76
2022-12-24T14:26:36.264Z,9.86
2022-12-24T14:29:12.026Z,9.65
2022-12-24T14:31:49.889Z,9.88
2022-12-24T14:34:17.023Z,9.76
2022-12-24T14:36:44.545Z,9.75
2022-12-24T14:39:16.508Z,9.60
2022-12-24T14:41:59.800Z,9.68
2022-12-24T14:44:48.492Z,9.78
2022-12-24T14:47:21.755Z,9.74
2022-12-24T14:50:26.092Z,9.68
2022-12-24T14:53:18.833Z,9.63
2022-12-24T14:55:47.770Z,9.52
2022-12-24T14:58:53.298Z,9.52
2022-12-24T15:01:25.343Z,9.46
2022-12-24T15:04:10.677Z,9.46
2022-12-24T15:06:52.849Z,9.30
2022-12-24T15:09:24.498Z,9.25
2022-12-24T15:11:54.312Z,9.21
2022-12-24T15:14:22.030Z,9.21
2022-12-24T15:17:18.589Z,9.16
2022-12-24T15:19:47.015Z,9.05
2022-12-24T15:22:25.586Z,9.07
2022-12-24T15:24:52.671Z,9.12
2022-12-24T15:27:21.703Z,9.08
2022-12-24T15:29:50.501Z,8.93
2022-12-24T15:32:18.989Z,8.89
2022-12-24T15:34:47.564Z,8.93
2022-12-24T15:37:17.648Z,9.02
2022-12-24T15:39:44.844Z,8.94
2022-12-24T15:42:14.720Z,8.76
2022-12-24T15:45:05.111Z,8.86
2022-12-24T15:47:39.060Z,8.82
2022-12-24T15:50:15.875Z,8.71
2022-12-24T15:52:42.929Z,8.70
2022-12-24T15:55:38.710Z,8.58
2022-12-24T15:58:27.289Z,8.63
2022-12-24T16:01:09.812Z,8.60
2022-12-24T16:03:38.459Z,8.41
2022-12-24T16:06:06.669Z,8.42
2022-12-24T16:08:39.187Z,8.30
2022-12-24T16:11:08.229Z,8.46
2022-12-24T16:13:41.001Z,8.29
2022-12-24T16:16:12.880Z,8.30
2022-12-24T16:18:49.283Z,8.22
2022-12-24T16:21:53.896Z,8.04
2022-12-24T16:24:23.413Z,8.05
2022-12-24T16:26:50.786Z,8.05
2022-12-24T16:29:19.476Z,8.07
2022-12-24T16:31:51.043Z,7.99
2022-12-24T16:34:18.120Z,8.16
2022-12-24T16:36:45.812Z,8.03
2022-12-24T16:39:33.800Z,8.11
2022-12-24T16:42:21.304Z,7.93
2022-12-24T16:44:48.682Z,7.89
2022-12-24T16:47:22.888Z,7.79
2022-12-24T16:49:57.570Z,7.83
2022-12-24T16:52:29.810Z,7.84
2022-12-24T16:54:57.389Z,7.75
2022-12-24T16:57:25.329Z,7.74
2022-12-24T16:59:57.584Z,7.97
2022-12-24T17:02:28.169Z,7.93
2022-12-24T17:05:04.701Z,7.69
2022-12-24T17:07:31.859Z,7.81
2022-12-24T17:09:58.950Z,7.82
2022-12-24T17:12:26.183Z,7.70
2022-12-24T17:14:54.396Z,7.66
2022-12-24T17:17:33.901Z,7.77
2022-12-24T17:20:04.930Z,7.73
2022-12-24T17:22:32.108Z,7.70
2022-12-24T17:24:59.185Z,7.68
2022-12-24T17:27:26.457Z,7.62
2022-12-24T17:29:54.883Z,7.68
2022-12-24T17:32:22.201Z,7.66
2022-12-24T17:34:49.326Z,7.58
2022-12-24T17:37:16.396Z,7.53
2022-12-24T17:39:43.389Z,7.70
2022-12-24T17:42:10.598Z,7.65
2022-12-24T17:44:37.587Z,7.51
2022-12-24T17:47:05.438Z,7.60
2022-12-24T17:49:32.720Z,7.49
2022-12-24T17:52:00.106Z,7.50
2022-12-24T17:54:27.082Z,7.64
2022-12-24T17:56:54.144Z,7.48
2022-12-24T17:59:21.310Z,7.41
2022-12-24T18:01:56.749Z,7.46
2022-12-24T18:04:26.219Z,7.44
2022-12-24T18:06:59.584Z,7.52
2022-12-24T18:09:29.498Z,7.44
2022-12-24T18:11:56.547Z,7.57
2022-12-24T18:14:23.607Z,7.42
2022-12-24T18:16:50.750Z,7.48
2022-12-24T18:19:17.857Z,7.44
2022-12-24T18:21:46.111Z,7.38
2022-12-24T18:24:13.359Z,7.33
2022-12-24T18:26:40.463Z,7.27
2022-12-24T18:29:08.966Z,7.39
2022-12-24T18:31:36.416Z,7.34
2022-12-24T18:34:04.503Z,7.34
2022-12-24T18:36:31.767Z,7.40
2022-12-24T18:38:58.885Z,7.33
2022-12-24T18:41:27.916Z,7.37
2022-12-24T18:43:55.071Z,7.38
2022-12-24T18:46:23.857Z,7.37
2022-12-24T18:48:51.117Z,7.26
2022-12-24T18:51:18.960Z,7.21
2022-12-24T18:53:45.896Z,7.13
2022-12-24T18:56:15.934Z,7.21
2022-12-24T18:58:43.318Z,7.06
2022-12-24T19:01:18.031Z,7.23
2022-12-24T19:03:45.329Z,7.18
2022-12-24T19:06:12.272Z,7.18
2022-12-24T19:08:56.990Z,7.03
2022-12-24T19:11:25.338Z,7.04
2022-12-24T19:13:53.261Z,7.00
2022-12-24T19:16:20.744Z,6.96
2022-12-24T19:18:47.942Z,7.00
2022-12-24T19:21:15.685Z,7.04
2022-12-24T19:23:42.918Z,7.08
2022-12-24T19:26:11.236Z,6.95
2022-12-24T19:28:38.326Z,6.94
2022-12-24T19:31:15.054Z,6.92
2022-12-24T19:33:46.777Z,6.98
2022-12-24T19:36:16.134Z,7.01
2022-12-24T19:38:43.654Z,6.93
2022-12-24T19:41:16.096Z,6.99
2022-12-24T19:43:46.674Z,6.98
2022-12-24T19:46:15.249Z,6.84
2022-12-24T19:48:45.423Z,6.95
2022-12-24T19:51:12.624Z,6.84
2022-12-24T19:53:39.751Z,6.85
2022-12-24T19:56:07.280Z,6.81
2022-12-24T19:58:34.482Z,6.68
2022-12-24T20:01:14.737Z,6.76
2022-12-24T20:03:42.463Z,6.71
2022-12-24T20:06:09.624Z,6.87
2022-12-24T20:08:37.206Z,6.79
2022-12-24T20:11:06.675Z,6.68
2022-12-24T20:13:37.303Z,6.68
2022-12-24T20:16:09.194Z,6.64
2022-12-24T20:18:36.533Z,6.63
2022-12-24T20:21:05.172Z,6.84
2022-12-24T20:23:32.173Z,6.82
2022-12-24T20:26:01.516Z,6.73
2022-12-24T20:28:29.156Z,6.68
2022-12-24T20:30:56.249Z,6.71
2022-12-24T20:33:23.275Z,6.80
2022-12-24T20:35:50.318Z,6.78
2022-12-24T20:38:17.387Z,6.73
2022-12-24T20:40:45.245Z,6.78
2022-12-24T20:43:12.878Z,6.76
2022-12-24T20:45:40.100Z,6.76
2022-12-24T20:48:07.229Z,6.69
2022-12-24T20:50:34.348Z,6.57
2022-12-24T20:53:01.374Z,6.62
2022-12-24T20:55:28.485Z,6.74
2022-12-24T20:57:55.573Z,6.54
2022-12-24T21:00:23.523Z,6.42
2022-12-24T21:02:52.110Z,6.61
2022-12-24T21:05:19.297Z,6.60
2022-12-24T21:07:48.237Z,6.53
2022-12-24T21:10:15.590Z,6.51
2022-12-24T21:12:59.052Z,6.41
2022-12-24T21:15:28.177Z,6.46
2022-12-24T21:17:55.741Z,6.58
2022-12-24T21:20:25.024Z,6.45
2022-12-24T21:22:55.970Z,6.49
2022-12-24T21:25:27.598Z,6.45
2022-12-24T21:27:57.386Z,6.46
2022-12-24T21:30:24.703Z,6.27
2022-12-24T21:32:51.930Z,6.28
2022-12-24T21:35:19.059Z,6.21
2022-12-24T21:37:48.588Z,6.27
2022-12-24T21:40:15.659Z,6.17
2022-12-24T21:42:42.803Z,6.27
2022-12-24T21:45:10.945Z,6.13
2022-12-24T21:47:38.421Z,6.30
2022-12-24T21:50:29.984Z,6.21
2022-12-24T21:53:19.179Z,5.99
2022-12-24T21:55:46.367Z,6.13
2022-12-24T21:58:13.707Z,6.15
2022-12-24T22:00:40.993Z,6.14
2022-12-24T22:03:11.152Z,5.97
2022-12-24T22:05:38.192Z,6.01
2022-12-24T22:08:27.738Z,6.06
2022-12-24T22:11:16.451Z,6.04
2022-12-24T22:13:43.454Z,5.91
2022-12-24T22:16:16.067Z,5.88
2022-12-24T22:18:43.272Z,5.82
2022-12-24T22:21:11.524Z,5.98
2022-12-24T22:23:42.362Z,5.78
2022-12-24T22:26:11.911Z,5.74
2022-12-24T22:28:39.007Z,5.85
2022-12-24T22:31:08.372Z,5.93
2022-12-24T22:33:42.125Z,5.87
2022-12-24T22:36:09.055Z,5.72
2022-12-24T22:38:36.455Z,5.62
2022-12-24T22:41:09.809Z,5.76
2022-12-24T22:43:39.821Z,5.68
2022-12-24T22:46:07.918Z,5.71
2022-12-24T22:48:43.456Z,5.64
2022-12-24T22:51:14.168Z,5.74
2022-12-24T22:53:41.435Z,5.72
2022-12-24T22:56:09.673Z,5.62
2022-12-24T22:58:37.272Z,5.65
2022-12-24T23:01:06.476Z,5.59
2022-12-24T23:03:33.944Z,5.66
2022-12-24T23:06:04.094Z,5.72
2022-12-24T23:08:32.138Z,5.74
2022-12-24T23:11:15.756Z,5.63
2022-12-24T23:14:02.781Z,5.55
2022-12-24T23:16:33.397Z,5.70
2022-12-24T23:19:01.194Z,5.69
2022-12-24T23:21:28.217Z,5.67
2022-12-24T23:23:57.089Z,5.49
2022-12-24T23:26:24.381Z,5.65
2022-12-24T23:28:53.226Z,5.39
2022-12-24T23:31:20.780Z,5.43
2022-12-24T23:33:48.010Z,5.57
2022-12-24T23:36:15.215Z,5.37
2022-12-24T23:38:42.252Z,5.35
2022-12-24T23:41:09.396Z,5.30
2022-12-24T23:43:36.459Z,5.42
2022-12-24T23:46:03.565Z,5.43
2022-12-24T23:48:30.557Z,5.32
2022-12-24T23:51:14.065Z,5.29
2022-12-24T23:53:41.086Z,5.29
2022-12-24T23:56:08.396Z,5.32
2022-12-24T23:58:35.439Z,5.27
